sensor_id;sensor_type;location;lat;lon;timestamp;P1;durP1;ratioP1;P2;durP2;ratioP2
31872;SDS011;22407;42.820;23.374;2023-05-20T00:01:05;16.58;;;8.18;;
31872;SDS011;22407;42.820;23.374;2023-05-20T00:03:31;17.33;;;7.67;;
31872;SDS011;22407;42.820;23.374;2023-05-20T00:05:56;15.80;;;7.73;;
31872;SDS011;22407;42.820;23.374;2023-05-20T00:08:21;15.27;;;7.00;;
31872;SDS011;22407;42.820;23.374;2023-05-20T00:10:46;15.17;;;7.47;;
31872;SDS011;22407;42.820;23.374;2023-05-20T00:13:12;14.93;;;7.33;;
31872;SDS011;22407;42.820;23.374;2023-05-20T00:15:37;15.93;;;7.82;;
31872;SDS011;22407;42.820;23.374;2023-05-20T00:18:03;14.93;;;7.13;;
31872;SDS011;22407;42.820;23.374;2023-05-20T00:20:28;15.70;;;7.23;;
31872;SDS011;22407;42.820;23.374;2023-05-20T00:22:53;15.20;;;7.50;;
31872;SDS011;22407;42.820;23.374;2023-05-20T00:25:19;17.23;;;7.33;;
31872;SDS011;22407;42.820;23.374;2023-05-20T00:27:44;14.30;;;6.50;;
31872;SDS011;22407;42.820;23.374;2023-05-20T00:30:10;14.38;;;7.43;;
31872;SDS011;22407;42.820;23.374;2023-05-20T00:32:36;14.05;;;6.90;;
31872;SDS011;22407;42.820;23.374;2023-05-20T00:35:01;16.70;;;7.47;;
31872;SDS011;22407;42.820;23.374;2023-05-20T00:37:27;14.97;;;7.23;;
31872;SDS011;22407;42.820;23.374;2023-05-20T00:39:52;16.20;;;7.80;;
31872;SDS011;22407;42.820;23.374;2023-05-20T00:42:21;15.27;;;7.43;;
31872;SDS011;22407;42.820;23.374;2023-05-20T00:44:46;17.30;;;7.45;;
31872;SDS011;22407;42.820;23.374;2023-05-20T00:47:12;15.87;;;8.40;;
31872;SDS011;22407;42.820;23.374;2023-05-20T00:49:37;17.35;;;7.70;;
31872;SDS011;22407;42.820;23.374;2023-05-20T00:52:03;18.23;;;8.03;;
31872;SDS011;22407;42.820;23.374;2023-05-20T00:54:28;17.98;;;8.40;;
31872;SDS011;22407;42.820;23.374;2023-05-20T00:56:54;17.93;;;8.17;;
31872;SDS011;22407;42.820;23.374;2023-05-20T00:59:20;16.77;;;7.77;;
31872;SDS011;22407;42.820;23.374;2023-05-20T01:01:45;14.97;;;7.37;;
31872;SDS011;22407;42.820;23.374;2023-05-20T01:04:10;16.63;;;7.27;;
31872;SDS011;22407;42.820;23.374;2023-05-20T01:06:36;16.03;;;7.40;;
31872;SDS011;22407;42.820;23.374;2023-05-20T01:09:04;14.43;;;7.30;;
31872;SDS011;22407;42.820;23.374;2023-05-20T01:11:31;16.10;;;8.00;;
31872;SDS011;22407;42.820;23.374;2023-05-20T01:14:00;15.00;;;8.23;;
31872;SDS011;22407;42.820;23.374;2023-05-20T01:16:27;13.93;;;7.93;;
31872;SDS011;22407;42.820;23.374;2023-05-20T01:18:54;16.53;;;7.20;;
31872;SDS011;22407;42.820;23.374;2023-05-20T01:21:19;17.42;;;7.57;;
31872;SDS011;22407;42.820;23.374;2023-05-20T01:23:46;14.73;;;7.60;;
31872;SDS011;22407;42.820;23.374;2023-05-20T01:26:11;15.20;;;7.95;;
31872;SDS011;22407;42.820;23.374;2023-05-20T01:28:41;13.73;;;6.87;;
31872;SDS011;22407;42.820;23.374;2023-05-20T01:31:11;17.95;;;7.60;;
31872;SDS011;22407;42.820;23.374;2023-05-20T01:33:38;15.95;;;7.35;;
31872;SDS011;22407;42.820;23.374;2023-05-20T01:36:05;16.38;;;7.07;;
31872;SDS011;22407;42.820;23.374;2023-05-20T01:38:31;13.60;;;6.75;;
31872;SDS011;22407;42.820;23.374;2023-05-20T01:40:56;13.03;;;6.17;;
31872;SDS011;22407;42.820;23.374;2023-05-20T01:43:23;15.75;;;7.00;;
31872;SDS011;22407;42.820;23.374;2023-05-20T01:45:49;15.27;;;7.65;;
31872;SDS011;22407;42.820;23.374;2023-05-20T01:48:14;14.30;;;7.53;;
31872;SDS011;22407;42.820;23.374;2023-05-20T01:50:40;14.27;;;7.30;;
31872;SDS011;22407;42.820;23.374;2023-05-20T01:53:06;17.88;;;7.78;;
31872;SDS011;22407;42.820;23.374;2023-05-20T01:55:34;17.45;;;7.47;;
31872;SDS011;22407;42.820;23.374;2023-05-20T01:58:00;16.03;;;7.50;;
31872;SDS011;22407;42.820;23.374;2023-05-20T02:00:25;15.33;;;7.60;;
31872;SDS011;22407;42.820;23.374;2023-05-20T02:02:50;14.63;;;7.07;;
31872;SDS011;22407;42.820;23.374;2023-05-20T02:05:16;16.30;;;8.30;;
31872;SDS011;22407;42.820;23.374;2023-05-20T02:07:41;17.57;;;8.10;;
31872;SDS011;22407;42.820;23.374;2023-05-20T02:10:07;18.08;;;7.95;;
31872;SDS011;22407;42.820;23.374;2023-05-20T02:12:32;15.20;;;7.53;;
31872;SDS011;22407;42.820;23.374;2023-05-20T02:14:57;16.60;;;7.77;;
31872;SDS011;22407;42.820;23.374;2023-05-20T02:17:23;13.47;;;7.10;;
31872;SDS011;22407;42.820;23.374;2023-05-20T02:19:48;18.00;;;7.45;;
31872;SDS011;22407;42.820;23.374;2023-05-20T02:22:13;17.27;;;7.90;;
31872;SDS011;22407;42.820;23.374;2023-05-20T02:24:39;16.50;;;8.00;;
31872;SDS011;22407;42.820;23.374;2023-05-20T02:27:04;17.20;;;8.30;;
31872;SDS011;22407;42.820;23.374;2023-05-20T02:29:30;14.50;;;7.32;;
31872;SDS011;22407;42.820;23.374;2023-05-20T02:31:55;16.33;;;7.77;;
31872;SDS011;22407;42.820;23.374;2023-05-20T02:34:21;17.07;;;9.00;;
31872;SDS011;22407;42.820;23.374;2023-05-20T02:36:46;18.00;;;9.00;;
31872;SDS011;22407;42.820;23.374;2023-05-20T02:39:11;17.10;;;9.23;;
31872;SDS011;22407;42.820;23.374;2023-05-20T02:41:37;17.13;;;8.67;;
31872;SDS011;22407;42.820;23.374;2023-05-20T02:44:02;17.83;;;8.88;;
31872;SDS011;22407;42.820;23.374;2023-05-20T02:46:27;15.00;;;7.83;;
31872;SDS011;22407;42.820;23.374;2023-05-20T02:48:53;17.40;;;7.80;;
31872;SDS011;22407;42.820;23.374;2023-05-20T02:51:18;16.33;;;8.93;;
31872;SDS011;22407;42.820;23.374;2023-05-20T02:53:43;16.03;;;7.90;;
31872;SDS011;22407;42.820;23.374;2023-05-20T02:56:08;19.73;;;8.77;;
31872;SDS011;22407;42.820;23.374;2023-05-20T02:58:34;17.05;;;7.72;;
31872;SDS011;22407;42.820;23.374;2023-05-20T03:01:00;14.77;;;8.10;;
31872;SDS011;22407;42.820;23.374;2023-05-20T03:03:25;17.50;;;7.47;;
31872;SDS011;22407;42.820;23.374;2023-05-20T03:05:51;17.80;;;7.47;;
31872;SDS011;22407;42.820;23.374;2023-05-20T03:08:19;13.77;;;7.20;;
31872;SDS011;22407;42.820;23.374;2023-05-20T03:10:45;19.27;;;9.38;;
31872;SDS011;22407;42.820;23.374;2023-05-20T03:13:10;16.10;;;8.37;;
31872;SDS011;22407;42.820;23.374;2023-05-20T03:15:36;14.07;;;7.47;;
31872;SDS011;22407;42.820;23.374;2023-05-20T03:18:02;16.42;;;7.70;;
31872;SDS011;22407;42.820;23.374;2023-05-20T03:20:27;28.97;;;9.00;;
31872;SDS011;22407;42.820;23.374;2023-05-20T03:22:53;18.48;;;8.68;;
31872;SDS011;22407;42.820;23.374;2023-05-20T03:25:19;17.83;;;8.67;;
31872;SDS011;22407;42.820;23.374;2023-05-20T03:27:45;19.08;;;9.82;;
31872;SDS011;22407;42.820;23.374;2023-05-20T03:30:10;20.20;;;9.07;;
31872;SDS011;22407;42.820;23.374;2023-05-20T03:32:36;18.95;;;9.48;;
31872;SDS011;22407;42.820;23.374;2023-05-20T03:35:01;20.53;;;8.40;;
31872;SDS011;22407;42.820;23.374;2023-05-20T03:37:27;16.50;;;7.83;;
31872;SDS011;22407;42.820;23.374;2023-05-20T03:39:52;15.90;;;8.00;;
31872;SDS011;22407;42.820;23.374;2023-05-20T03:42:17;15.97;;;7.53;;
31872;SDS011;22407;42.820;23.374;2023-05-20T03:44:43;18.30;;;8.20;;
31872;SDS011;22407;42.820;23.374;2023-05-20T03:47:08;18.30;;;8.27;;
31872;SDS011;22407;42.820;23.374;2023-05-20T03:49:33;16.77;;;7.87;;
31872;SDS011;22407;42.820;23.374;2023-05-20T03:51:58;16.87;;;8.27;;
31872;SDS011;22407;42.820;23.374;2023-05-20T03:54:24;15.77;;;7.93;;
31872;SDS011;22407;42.820;23.374;2023-05-20T03:56:49;18.00;;;9.20;;
31872;SDS011;22407;42.820;23.374;2023-05-20T03:59:15;19.20;;;9.02;;
31872;SDS011;22407;42.820;23.374;2023-05-20T04:01:41;18.63;;;8.37;;
31872;SDS011;22407;42.820;23.374;2023-05-20T04:04:07;18.70;;;8.67;;
31872;SDS011;22407;42.820;23.374;2023-05-20T04:06:32;18.37;;;8.40;;
31872;SDS011;22407;42.820;23.374;2023-05-20T04:08:57;16.93;;;8.47;;
31872;SDS011;22407;42.820;23.374;2023-05-20T04:11:23;18.07;;;9.33;;
31872;SDS011;22407;42.820;23.374;2023-05-20T04:13:48;17.70;;;9.20;;
31872;SDS011;22407;42.820;23.374;2023-05-20T04:16:13;18.97;;;8.50;;
31872;SDS011;22407;42.820;23.374;2023-05-20T04:18:39;17.57;;;8.93;;
31872;SDS011;22407;42.820;23.374;2023-05-20T04:21:05;16.80;;;8.13;;
31872;SDS011;22407;42.820;23.374;2023-05-20T04:23:30;18.30;;;8.53;;
31872;SDS011;22407;42.820;23.374;2023-05-20T04:25:55;16.47;;;8.73;;
31872;SDS011;22407;42.820;23.374;2023-05-20T04:28:26;19.30;;;9.40;;
31872;SDS011;22407;42.820;23.374;2023-05-20T04:31:00;19.05;;;10.07;;
31872;SDS011;22407;42.820;23.374;2023-05-20T04:33:29;18.00;;;9.85;;
31872;SDS011;22407;42.820;23.374;2023-05-20T04:35:55;21.47;;;10.80;;
31872;SDS011;22407;42.820;23.374;2023-05-20T04:38:25;24.88;;;12.48;;
31872;SDS011;22407;42.820;23.374;2023-05-20T04:40:56;21.90;;;11.63;;
31872;SDS011;22407;42.820;23.374;2023-05-20T04:43:22;23.20;;;11.32;;
31872;SDS011;22407;42.820;23.374;2023-05-20T04:45:48;22.77;;;11.37;;
31872;SDS011;22407;42.820;23.374;2023-05-20T04:48:13;22.23;;;11.30;;
31872;SDS011;22407;42.820;23.374;2023-05-20T04:50:38;21.43;;;11.37;;
31872;SDS011;22407;42.820;23.374;2023-05-20T04:53:04;23.40;;;11.47;;
31872;SDS011;22407;42.820;23.374;2023-05-20T04:55:29;24.47;;;12.23;;
31872;SDS011;22407;42.820;23.374;2023-05-20T04:57:56;25.33;;;11.68;;
31872;SDS011;22407;42.820;23.374;2023-05-20T05:00:21;23.90;;;12.90;;
31872;SDS011;22407;42.820;23.374;2023-05-20T05:02:47;24.83;;;12.70;;
31872;SDS011;22407;42.820;23.374;2023-05-20T05:05:12;27.57;;;13.77;;
31872;SDS011;22407;42.820;23.374;2023-05-20T05:07:38;24.93;;;12.80;;
31872;SDS011;22407;42.820;23.374;2023-05-20T05:10:03;26.27;;;12.60;;
31872;SDS011;22407;42.820;23.374;2023-05-20T05:12:28;27.43;;;12.93;;
31872;SDS011;22407;42.820;23.374;2023-05-20T05:14:54;26.60;;;13.40;;
31872;SDS011;22407;42.820;23.374;2023-05-20T05:17:19;27.40;;;13.67;;
31872;SDS011;22407;42.820;23.374;2023-05-20T05:19:44;26.37;;;14.00;;
31872;SDS011;22407;42.820;23.374;2023-05-20T05:22:10;26.67;;;13.83;;
31872;SDS011;22407;42.820;23.374;2023-05-20T05:24:35;30.17;;;13.23;;
31872;SDS011;22407;42.820;23.374;2023-05-20T05:27:00;25.53;;;11.93;;
31872;SDS011;22407;42.820;23.374;2023-05-20T05:29:25;20.27;;;10.67;;
31872;SDS011;22407;42.820;23.374;2023-05-20T05:31:51;21.73;;;11.73;;
31872;SDS011;22407;42.820;23.374;2023-05-20T05:34:16;24.80;;;12.03;;
31872;SDS011;22407;42.820;23.374;2023-05-20T05:36:41;19.93;;;10.77;;
31872;SDS011;22407;42.820;23.374;2023-05-20T05:39:06;22.73;;;11.00;;
31872;SDS011;22407;42.820;23.374;2023-05-20T05:41:32;19.57;;;11.20;;
31872;SDS011;22407;42.820;23.374;2023-05-20T05:43:58;19.58;;;10.48;;
31872;SDS011;22407;42.820;23.374;2023-05-20T05:46:23;19.63;;;10.60;;
31872;SDS011;22407;42.820;23.374;2023-05-20T05:48:48;19.60;;;10.10;;
31872;SDS011;22407;42.820;23.374;2023-05-20T05:51:15;20.87;;;10.50;;
31872;SDS011;22407;42.820;23.374;2023-05-20T05:53:40;21.00;;;10.38;;
31872;SDS011;22407;42.820;23.374;2023-05-20T05:56:05;17.93;;;9.63;;
31872;SDS011;22407;42.820;23.374;2023-05-20T05:58:31;20.40;;;9.77;;
31872;SDS011;22407;42.820;23.374;2023-05-20T06:00:57;18.73;;;9.90;;
31872;SDS011;22407;42.820;23.374;2023-05-20T06:03:22;20.87;;;10.40;;
31872;SDS011;22407;42.820;23.374;2023-05-20T06:05:47;20.27;;;9.80;;
31872;SDS011;22407;42.820;23.374;2023-05-20T06:08:13;20.85;;;11.57;;
31872;SDS011;22407;42.820;23.374;2023-05-20T06:10:38;21.67;;;9.80;;
31872;SDS011;22407;42.820;23.374;2023-05-20T06:13:03;19.37;;;9.70;;
31872;SDS011;22407;42.820;23.374;2023-05-20T06:15:28;23.47;;;10.40;;
31872;SDS011;22407;42.820;23.374;2023-05-20T06:17:54;22.43;;;11.20;;
31872;SDS011;22407;42.820;23.374;2023-05-20T06:20:20;21.15;;;12.20;;
31872;SDS011;22407;42.820;23.374;2023-05-20T06:22:45;17.20;;;10.27;;
31872;SDS011;22407;42.820;23.374;2023-05-20T06:25:11;19.83;;;10.20;;
31872;SDS011;22407;42.820;23.374;2023-05-20T06:27:37;18.73;;;10.05;;
31872;SDS011;22407;42.820;23.374;2023-05-20T06:30:02;19.13;;;9.90;;
31872;SDS011;22407;42.820;23.374;2023-05-20T06:32:27;18.80;;;9.73;;
31872;SDS011;22407;42.820;23.374;2023-05-20T06:34:53;20.67;;;9.47;;
31872;SDS011;22407;42.820;23.374;2023-05-20T06:37:18;19.33;;;10.23;;
31872;SDS011;22407;42.820;23.374;2023-05-20T06:39:43;22.77;;;8.80;;
31872;SDS011;22407;42.820;23.374;2023-05-20T06:42:10;19.77;;;9.10;;
31872;SDS011;22407;42.820;23.374;2023-05-20T06:44:35;19.00;;;9.30;;
31872;SDS011;22407;42.820;23.374;2023-05-20T06:47:01;17.30;;;9.57;;
31872;SDS011;22407;42.820;23.374;2023-05-20T06:49:26;16.33;;;8.80;;
31872;SDS011;22407;42.820;23.374;2023-05-20T06:51:52;16.20;;;9.13;;
31872;SDS011;22407;42.820;23.374;2023-05-20T06:54:17;17.33;;;9.00;;
31872;SDS011;22407;42.820;23.374;2023-05-20T06:56:42;15.70;;;8.33;;
31872;SDS011;22407;42.820;23.374;2023-05-20T06:59:08;20.15;;;8.63;;
31872;SDS011;22407;42.820;23.374;2023-05-20T07:01:33;17.27;;;9.03;;
31872;SDS011;22407;42.820;23.374;2023-05-20T07:03:59;17.67;;;8.53;;
31872;SDS011;22407;42.820;23.374;2023-05-20T07:06:24;16.87;;;8.20;;
31872;SDS011;22407;42.820;23.374;2023-05-20T07:08:49;16.67;;;9.10;;
31872;SDS011;22407;42.820;23.374;2023-05-20T07:11:14;13.90;;;7.87;;
31872;SDS011;22407;42.820;23.374;2023-05-20T07:13:40;27.73;;;8.40;;
31872;SDS011;22407;42.820;23.374;2023-05-20T07:16:05;14.30;;;8.00;;
31872;SDS011;22407;42.820;23.374;2023-05-20T07:18:30;14.90;;;7.90;;
31872;SDS011;22407;42.820;23.374;2023-05-20T07:20:55;17.00;;;7.53;;
31872;SDS011;22407;42.820;23.374;2023-05-20T07:23:22;16.23;;;8.13;;
31872;SDS011;22407;42.820;23.374;2023-05-20T07:25:47;13.60;;;7.57;;
31872;SDS011;22407;42.820;23.374;2023-05-20T07:28:14;16.00;;;7.60;;
31872;SDS011;22407;42.820;23.374;2023-05-20T07:30:40;14.85;;;7.50;;
31872;SDS011;22407;42.820;23.374;2023-05-20T07:33:05;13.00;;;7.20;;
31872;SDS011;22407;42.820;23.374;2023-05-20T07:35:31;12.33;;;6.97;;
31872;SDS011;22407;42.820;23.374;2023-05-20T07:37:56;14.10;;;6.80;;
31872;SDS011;22407;42.820;23.374;2023-05-20T07:40:22;12.17;;;6.97;;
31872;SDS011;22407;42.820;23.374;2023-05-20T07:42:47;12.90;;;6.97;;
31872;SDS011;22407;42.820;23.374;2023-05-20T07:45:12;12.00;;;6.17;;
31872;SDS011;22407;42.820;23.374;2023-05-20T07:47:37;15.47;;;6.20;;
31872;SDS011;22407;42.820;23.374;2023-05-20T07:50:03;15.02;;;6.90;;
31872;SDS011;22407;42.820;23.374;2023-05-20T07:52:28;11.87;;;5.93;;
31872;SDS011;22407;42.820;23.374;2023-05-20T07:54:54;11.90;;;5.83;;
31872;SDS011;22407;42.820;23.374;2023-05-20T07:57:19;14.93;;;5.80;;
31872;SDS011;22407;42.820;23.374;2023-05-20T07:59:44;12.57;;;5.80;;
31872;SDS011;22407;42.820;23.374;2023-05-20T08:02:10;11.40;;;5.32;;
31872;SDS011;22407;42.820;23.374;2023-05-20T08:04:35;10.10;;;5.07;;
31872;SDS011;22407;42.820;23.374;2023-05-20T08:07:01;13.20;;;6.23;;
31872;SDS011;22407;42.820;23.374;2023-05-20T08:09:26;10.87;;;6.10;;
31872;SDS011;22407;42.820;23.374;2023-05-20T08:11:51;12.03;;;5.53;;
31872;SDS011;22407;42.820;23.374;2023-05-20T08:14:17;9.90;;;4.73;;
31872;SDS011;22407;42.820;23.374;2023-05-20T08:16:42;11.88;;;5.90;;
31872;SDS011;22407;42.820;23.374;2023-05-20T08:19:07;9.90;;;5.30;;
31872;SDS011;22407;42.820;23.374;2023-05-20T08:21:33;9.97;;;5.13;;
31872;SDS011;22407;42.820;23.374;2023-05-20T08:23:59;12.32;;;5.95;;
31872;SDS011;22407;42.820;23.374;2023-05-20T08:26:24;11.00;;;5.47;;
31872;SDS011;22407;42.820;23.374;2023-05-20T08:28:50;11.10;;;5.57;;
31872;SDS011;22407;42.820;23.374;2023-05-20T08:31:16;10.63;;;5.73;;
31872;SDS011;22407;42.820;23.374;2023-05-20T08:33:42;12.70;;;6.18;;
31872;SDS011;22407;42.820;23.374;2023-05-20T08:36:07;10.80;;;5.10;;
31872;SDS011;22407;42.820;23.374;2023-05-20T08:38:32;10.43;;;5.90;;
31872;SDS011;22407;42.820;23.374;2023-05-20T08:40:58;11.40;;;5.70;;
31872;SDS011;22407;42.820;23.374;2023-05-20T08:43:23;9.87;;;5.60;;
31872;SDS011;22407;42.820;23.374;2023-05-20T08:45:49;9.43;;;5.03;;
31872;SDS011;22407;42.820;23.374;2023-05-20T08:48:16;11.30;;;5.85;;
31872;SDS011;22407;42.820;23.374;2023-05-20T08:50:43;11.93;;;6.73;;
31872;SDS011;22407;42.820;23.374;2023-05-20T08:53:08;12.30;;;5.57;;
31872;SDS011;22407;42.820;23.374;2023-05-20T08:55:37;10.03;;;5.10;;
31872;SDS011;22407;42.820;23.374;2023-05-20T08:58:06;10.90;;;5.72;;
31872;SDS011;22407;42.820;23.374;2023-05-20T09:00:31;13.00;;;6.17;;
31872;SDS011;22407;42.820;23.374;2023-05-20T09:02:57;10.20;;;5.87;;
31872;SDS011;22407;42.820;23.374;2023-05-20T09:05:22;10.15;;;5.90;;
31872;SDS011;22407;42.820;23.374;2023-05-20T09:07:48;12.63;;;5.80;;
31872;SDS011;22407;42.820;23.374;2023-05-20T09:10:13;14.53;;;5.77;;
31872;SDS011;22407;42.820;23.374;2023-05-20T09:12:38;10.02;;;6.13;;
31872;SDS011;22407;42.820;23.374;2023-05-20T09:15:04;11.00;;;6.00;;
31872;SDS011;22407;42.820;23.374;2023-05-20T09:17:30;12.57;;;6.38;;
31872;SDS011;22407;42.820;23.374;2023-05-20T09:19:55;9.43;;;5.93;;
31872;SDS011;22407;42.820;23.374;2023-05-20T09:22:24;11.60;;;6.13;;
31872;SDS011;22407;42.820;23.374;2023-05-20T09:24:50;10.32;;;5.45;;
31872;SDS011;22407;42.820;23.374;2023-05-20T09:27:16;13.03;;;6.60;;
31872;SDS011;22407;42.820;23.374;2023-05-20T09:29:41;11.03;;;5.90;;
31872;SDS011;22407;42.820;23.374;2023-05-20T09:32:08;12.45;;;5.70;;
31872;SDS011;22407;42.820;23.374;2023-05-20T09:34:34;12.32;;;6.07;;
31872;SDS011;22407;42.820;23.374;2023-05-20T09:36:59;10.57;;;5.87;;
31872;SDS011;22407;42.820;23.374;2023-05-20T09:39:25;10.13;;;5.23;;
31872;SDS011;22407;42.820;23.374;2023-05-20T09:41:55;13.52;;;5.97;;
31872;SDS011;22407;42.820;23.374;2023-05-20T09:44:21;11.60;;;5.85;;
31872;SDS011;22407;42.820;23.374;2023-05-20T09:46:47;11.10;;;6.50;;
31872;SDS011;22407;42.820;23.374;2023-05-20T09:49:13;10.17;;;5.60;;
31872;SDS011;22407;42.820;23.374;2023-05-20T09:51:39;10.13;;;5.70;;
31872;SDS011;22407;42.820;23.374;2023-05-20T09:54:05;10.85;;;5.45;;
31872;SDS011;22407;42.820;23.374;2023-05-20T09:56:33;10.50;;;5.60;;
31872;SDS011;22407;42.820;23.374;2023-05-20T09:58:58;11.97;;;5.47;;
31872;SDS011;22407;42.820;23.374;2023-05-20T10:01:24;13.30;;;5.22;;
31872;SDS011;22407;42.820;23.374;2023-05-20T10:03:51;10.23;;;5.53;;
31872;SDS011;22407;42.820;23.374;2023-05-20T10:06:36;9.75;;;5.03;;
31872;SDS011;22407;42.820;23.374;2023-05-20T10:12:07;12.32;;;5.53;;
31872;SDS011;22407;42.820;23.374;2023-05-20T10:14:42;11.57;;;4.70;;
31872;SDS011;22407;42.820;23.374;2023-05-20T10:17:20;12.33;;;4.37;;
31872;SDS011;22407;42.820;23.374;2023-05-20T10:19:47;12.27;;;4.47;;
31872;SDS011;22407;42.820;23.374;2023-05-20T10:22:14;15.43;;;4.70;;
31872;SDS011;22407;42.820;23.374;2023-05-20T10:24:43;10.73;;;5.50;;
31872;SDS011;22407;42.820;23.374;2023-05-20T10:27:13;9.65;;;3.92;;
31872;SDS011;22407;42.820;23.374;2023-05-20T10:32:11;9.63;;;4.90;;
31872;SDS011;22407;42.820;23.374;2023-05-20T10:34:46;12.90;;;4.90;;
31872;SDS011;22407;42.820;23.374;2023-05-20T10:37:22;9.43;;;4.75;;
31872;SDS011;22407;42.820;23.374;2023-05-20T10:39:48;8.40;;;4.95;;
31872;SDS011;22407;42.820;23.374;2023-05-20T10:42:13;11.10;;;5.20;;
31872;SDS011;22407;42.820;23.374;2023-05-20T10:44:43;9.67;;;4.83;;
31872;SDS011;22407;42.820;23.374;2023-05-20T10:47:08;11.80;;;4.95;;
31872;SDS011;22407;42.820;23.374;2023-05-20T10:49:34;9.07;;;4.90;;
31872;SDS011;22407;42.820;23.374;2023-05-20T10:52:02;12.17;;;5.70;;
31872;SDS011;22407;42.820;23.374;2023-05-20T10:54:27;9.33;;;5.23;;
31872;SDS011;22407;42.820;23.374;2023-05-20T10:56:53;9.48;;;5.43;;
31872;SDS011;22407;42.820;23.374;2023-05-20T10:59:19;12.70;;;5.50;;
31872;SDS011;22407;42.820;23.374;2023-05-20T11:01:45;9.10;;;4.93;;
31872;SDS011;22407;42.820;23.374;2023-05-20T11:04:12;9.57;;;5.22;;
31872;SDS011;22407;42.820;23.374;2023-05-20T11:06:37;10.50;;;5.40;;
31872;SDS011;22407;42.820;23.374;2023-05-20T11:09:06;9.47;;;5.03;;
31872;SDS011;22407;42.820;23.374;2023-05-20T11:11:31;10.00;;;6.07;;
31872;SDS011;22407;42.820;23.374;2023-05-20T11:13:56;10.93;;;5.00;;
31872;SDS011;22407;42.820;23.374;2023-05-20T11:16:22;9.03;;;4.73;;
31872;SDS011;22407;42.820;23.374;2023-05-20T11:18:48;8.30;;;4.77;;
31872;SDS011;22407;42.820;23.374;2023-05-20T11:21:14;10.50;;;5.10;;
31872;SDS011;22407;42.820;23.374;2023-05-20T11:23:40;12.03;;;5.23;;
31872;SDS011;22407;42.820;23.374;2023-05-20T11:26:05;8.68;;;4.93;;
31872;SDS011;22407;42.820;23.374;2023-05-20T11:28:30;8.60;;;4.20;;
31872;SDS011;22407;42.820;23.374;2023-05-20T11:30:58;9.88;;;5.25;;
31872;SDS011;22407;42.820;23.374;2023-05-20T11:33:24;11.18;;;5.60;;
31872;SDS011;22407;42.820;23.374;2023-05-20T11:35:51;12.25;;;5.50;;
31872;SDS011;22407;42.820;23.374;2023-05-20T11:38:17;14.57;;;6.10;;
31872;SDS011;22407;42.820;23.374;2023-05-20T11:40:46;11.15;;;5.88;;
31872;SDS011;22407;42.820;23.374;2023-05-20T11:43:12;14.27;;;4.78;;
31872;SDS011;22407;42.820;23.374;2023-05-20T11:45:44;10.77;;;5.35;;
31872;SDS011;22407;42.820;23.374;2023-05-20T11:48:10;14.43;;;5.03;;
31872;SDS011;22407;42.820;23.374;2023-05-20T11:50:37;23.85;;;5.82;;
31872;SDS011;22407;42.820;23.374;2023-05-20T11:53:04;12.77;;;5.60;;
31872;SDS011;22407;42.820;23.374;2023-05-20T11:55:30;12.50;;;5.43;;
31872;SDS011;22407;42.820;23.374;2023-05-20T11:57:57;10.45;;;5.57;;
31872;SDS011;22407;42.820;23.374;2023-05-20T12:00:22;13.33;;;5.50;;
31872;SDS011;22407;42.820;23.374;2023-05-20T12:02:48;9.80;;;5.60;;
31872;SDS011;22407;42.820;23.374;2023-05-20T12:05:13;11.00;;;6.10;;
31872;SDS011;22407;42.820;23.374;2023-05-20T12:07:38;10.48;;;5.30;;
31872;SDS011;22407;42.820;23.374;2023-05-20T12:10:04;12.47;;;4.87;;
31872;SDS011;22407;42.820;23.374;2023-05-20T12:12:29;17.47;;;5.27;;
31872;SDS011;22407;42.820;23.374;2023-05-20T12:14:55;15.38;;;5.28;;
31872;SDS011;22407;42.820;23.374;2023-05-20T12:17:20;10.03;;;5.20;;
31872;SDS011;22407;42.820;23.374;2023-05-20T12:19:46;14.40;;;4.80;;
31872;SDS011;22407;42.820;23.374;2023-05-20T12:22:11;9.03;;;4.80;;
31872;SDS011;22407;42.820;23.374;2023-05-20T12:24:36;11.80;;;4.37;;
31872;SDS011;22407;42.820;23.374;2023-05-20T12:27:01;9.00;;;4.70;;
31872;SDS011;22407;42.820;23.374;2023-05-20T12:29:28;11.60;;;5.03;;
31872;SDS011;22407;42.820;23.374;2023-05-20T12:31:53;11.03;;;5.33;;
31872;SDS011;22407;42.820;23.374;2023-05-20T12:34:18;9.30;;;5.20;;
31872;SDS011;22407;42.820;23.374;2023-05-20T12:36:44;11.70;;;4.47;;
31872;SDS011;22407;42.820;23.374;2023-05-20T12:39:09;12.97;;;5.20;;
31872;SDS011;22407;42.820;23.374;2023-05-20T12:41:35;9.10;;;4.60;;
31872;SDS011;22407;42.820;23.374;2023-05-20T12:44:00;11.23;;;4.27;;
31872;SDS011;22407;42.820;23.374;2023-05-20T12:46:25;11.20;;;5.13;;
31872;SDS011;22407;42.820;23.374;2023-05-20T12:48:51;13.47;;;4.43;;
31872;SDS011;22407;42.820;23.374;2023-05-20T12:51:16;8.60;;;3.90;;
31872;SDS011;22407;42.820;23.374;2023-05-20T12:53:43;9.55;;;4.28;;
31872;SDS011;22407;42.820;23.374;2023-05-20T12:56:08;9.70;;;4.50;;
31872;SDS011;22407;42.820;23.374;2023-05-20T12:58:33;8.93;;;4.57;;
31872;SDS011;22407;42.820;23.374;2023-05-20T13:00:59;9.70;;;4.33;;
31872;SDS011;22407;42.820;23.374;2023-05-20T13:03:24;11.10;;;4.68;;
31872;SDS011;22407;42.820;23.374;2023-05-20T13:05:49;11.33;;;4.47;;
31872;SDS011;22407;42.820;23.374;2023-05-20T13:08:15;9.27;;;4.40;;
31872;SDS011;22407;42.820;23.374;2023-05-20T13:10:40;14.53;;;4.90;;
31872;SDS011;22407;42.820;23.374;2023-05-20T13:13:06;9.67;;;4.43;;
31872;SDS011;22407;42.820;23.374;2023-05-20T13:15:31;9.47;;;4.47;;
31872;SDS011;22407;42.820;23.374;2023-05-20T13:17:57;9.93;;;4.72;;
31872;SDS011;22407;42.820;23.374;2023-05-20T13:20:23;9.77;;;4.68;;
31872;SDS011;22407;42.820;23.374;2023-05-20T13:22:48;8.80;;;4.47;;
31872;SDS011;22407;42.820;23.374;2023-05-20T13:25:14;8.70;;;4.38;;
31872;SDS011;22407;42.820;23.374;2023-05-20T13:27:39;10.57;;;4.50;;
31872;SDS011;22407;42.820;23.374;2023-05-20T13:30:05;8.80;;;4.60;;
31872;SDS011;22407;42.820;23.374;2023-05-20T13:32:31;9.35;;;4.32;;
31872;SDS011;22407;42.820;23.374;2023-05-20T13:34:56;9.90;;;4.97;;
31872;SDS011;22407;42.820;23.374;2023-05-20T13:37:23;8.68;;;4.22;;
31872;SDS011;22407;42.820;23.374;2023-05-20T13:39:48;11.43;;;5.13;;
31872;SDS011;22407;42.820;23.374;2023-05-20T13:42:14;9.87;;;4.80;;
31872;SDS011;22407;42.820;23.374;2023-05-20T13:44:39;9.50;;;4.47;;
31872;SDS011;22407;42.820;23.374;2023-05-20T13:47:04;9.17;;;4.70;;
31872;SDS011;22407;42.820;23.374;2023-05-20T13:49:29;9.43;;;4.57;;
31872;SDS011;22407;42.820;23.374;2023-05-20T13:51:55;9.93;;;4.13;;
31872;SDS011;22407;42.820;23.374;2023-05-20T13:54:20;12.73;;;4.53;;
31872;SDS011;22407;42.820;23.374;2023-05-20T13:56:45;10.32;;;4.30;;
31872;SDS011;22407;42.820;23.374;2023-05-20T13:59:11;8.30;;;4.00;;
31872;SDS011;22407;42.820;23.374;2023-05-20T14:01:36;8.77;;;4.30;;
31872;SDS011;22407;42.820;23.374;2023-05-20T14:04:01;8.40;;;4.50;;
31872;SDS011;22407;42.820;23.374;2023-05-20T14:06:26;11.60;;;4.20;;
31872;SDS011;22407;42.820;23.374;2023-05-20T14:08:53;11.90;;;4.68;;
31872;SDS011;22407;42.820;23.374;2023-05-20T14:11:18;8.67;;;4.90;;
31872;SDS011;22407;42.820;23.374;2023-05-20T14:13:45;8.98;;;4.32;;
31872;SDS011;22407;42.820;23.374;2023-05-20T14:16:10;9.47;;;4.60;;
31872;SDS011;22407;42.820;23.374;2023-05-20T14:18:35;11.10;;;4.87;;